sensor_id;sensor_type;location;lat;lon;timestamp;P1;durP1;ratioP1;P2;durP2;ratioP2
43793;SDS011;29414;44.798;20.366;2023-11-19T00:00:25;14.43;;;9.77;;
43793;SDS011;29414;44.798;20.366;2023-11-19T00:04:26;13.07;;;8.90;;
43793;SDS011;29414;44.798;20.366;2023-11-19T00:08:26;15.70;;;9.77;;
43793;SDS011;29414;44.798;20.366;2023-11-19T00:12:27;14.00;;;9.53;;
43793;SDS011;29414;44.798;20.366;2023-11-19T00:16:27;16.80;;;9.47;;
43793;SDS011;29414;44.798;20.366;2023-11-19T00:20:28;18.33;;;9.70;;
43793;SDS011;29414;44.798;20.366;2023-11-19T00:24:29;15.07;;;9.93;;
43793;SDS011;29414;44.798;20.366;2023-11-19T00:28:30;13.17;;;8.17;;
43793;SDS011;29414;44.798;20.366;2023-11-19T00:32:31;12.43;;;7.80;;
43793;SDS011;29414;44.798;20.366;2023-11-19T00:36:31;10.53;;;8.20;;
43793;SDS011;29414;44.798;20.366;2023-11-19T00:40:32;12.63;;;6.97;;
43793;SDS011;29414;44.798;20.366;2023-11-19T00:44:32;14.33;;;8.47;;
43793;SDS011;29414;44.798;20.366;2023-11-19T00:48:32;13.93;;;9.57;;
43793;SDS011;29414;44.798;20.366;2023-11-19T00:52:32;13.80;;;8.33;;
43793;SDS011;29414;44.798;20.366;2023-11-19T00:56:33;10.13;;;7.10;;
43793;SDS011;29414;44.798;20.366;2023-11-19T01:00:33;8.73;;;6.73;;
43793;SDS011;29414;44.798;20.366;2023-11-19T01:04:35;11.10;;;8.00;;
43793;SDS011;29414;44.798;20.366;2023-11-19T01:08:35;9.43;;;6.70;;
43793;SDS011;29414;44.798;20.366;2023-11-19T01:12:36;9.03;;;6.37;;
43793;SDS011;29414;44.798;20.366;2023-11-19T01:16:36;9.20;;;7.23;;
43793;SDS011;29414;44.798;20.366;2023-11-19T01:20:36;8.33;;;6.07;;
43793;SDS011;29414;44.798;20.366;2023-11-19T01:24:36;7.87;;;6.10;;
43793;SDS011;29414;44.798;20.366;2023-11-19T01:28:37;8.77;;;6.40;;
43793;SDS011;29414;44.798;20.366;2023-11-19T01:32:39;8.90;;;7.00;;
43793;SDS011;29414;44.798;20.366;2023-11-19T01:36:40;12.70;;;7.07;;
43793;SDS011;29414;44.798;20.366;2023-11-19T01:40:40;9.13;;;6.60;;
43793;SDS011;29414;44.798;20.366;2023-11-19T01:44:41;9.33;;;6.50;;
43793;SDS011;29414;44.798;20.366;2023-11-19T01:48:42;10.50;;;6.80;;
43793;SDS011;29414;44.798;20.366;2023-11-19T01:52:44;8.53;;;6.83;;
43793;SDS011;29414;44.798;20.366;2023-11-19T01:56:44;7.23;;;6.23;;
43793;SDS011;29414;44.798;20.366;2023-11-19T02:00:45;6.57;;;5.47;;
43793;SDS011;29414;44.798;20.366;2023-11-19T02:04:46;6.27;;;5.67;;
43793;SDS011;29414;44.798;20.366;2023-11-19T02:08:47;7.70;;;5.23;;
43793;SDS011;29414;44.798;20.366;2023-11-19T02:12:47;7.10;;;6.40;;
43793;SDS011;29414;44.798;20.366;2023-11-19T02:16:48;7.40;;;6.13;;
43793;SDS011;29414;44.798;20.366;2023-11-19T02:20:49;7.73;;;6.07;;
43793;SDS011;29414;44.798;20.366;2023-11-19T02:24:54;6.93;;;5.60;;
43793;SDS011;29414;44.798;20.366;2023-11-19T02:28:57;6.50;;;5.43;;
43793;SDS011;29414;44.798;20.366;2023-11-19T02:33:00;6.73;;;6.03;;
43793;SDS011;29414;44.798;20.366;2023-11-19T02:37:05;6.43;;;5.80;;
43793;SDS011;29414;44.798;20.366;2023-11-19T02:41:06;12.20;;;6.43;;
43793;SDS011;29414;44.798;20.366;2023-11-19T02:45:06;9.03;;;6.90;;
43793;SDS011;29414;44.798;20.366;2023-11-19T02:49:07;9.70;;;6.63;;
43793;SDS011;29414;44.798;20.366;2023-11-19T02:53:07;7.13;;;6.13;;
43793;SDS011;29414;44.798;20.366;2023-11-19T02:57:08;8.70;;;6.10;;
43793;SDS011;29414;44.798;20.366;2023-11-19T03:01:10;8.57;;;6.33;;
43793;SDS011;29414;44.798;20.366;2023-11-19T03:05:13;9.10;;;7.00;;
43793;SDS011;29414;44.798;20.366;2023-11-19T03:09:14;9.30;;;6.57;;
43793;SDS011;29414;44.798;20.366;2023-11-19T03:13:15;10.80;;;6.70;;
43793;SDS011;29414;44.798;20.366;2023-11-19T03:17:15;9.40;;;6.93;;
43793;SDS011;29414;44.798;20.366;2023-11-19T03:21:16;10.33;;;6.90;;
43793;SDS011;29414;44.798;20.366;2023-11-19T03:25:16;11.57;;;6.43;;
43793;SDS011;29414;44.798;20.366;2023-11-19T03:29:18;7.80;;;5.97;;
43793;SDS011;29414;44.798;20.366;2023-11-19T03:33:18;9.27;;;6.80;;
43793;SDS011;29414;44.798;20.366;2023-11-19T03:37:18;8.87;;;6.37;;
43793;SDS011;29414;44.798;20.366;2023-11-19T03:41:19;12.63;;;5.90;;
43793;SDS011;29414;44.798;20.366;2023-11-19T03:45:21;9.07;;;6.47;;
43793;SDS011;29414;44.798;20.366;2023-11-19T03:49:21;6.97;;;6.10;;
43793;SDS011;29414;44.798;20.366;2023-11-19T03:53:21;7.30;;;6.27;;
43793;SDS011;29414;44.798;20.366;2023-11-19T03:57:21;12.33;;;7.47;;
43793;SDS011;29414;44.798;20.366;2023-11-19T04:01:22;9.63;;;7.13;;
43793;SDS011;29414;44.798;20.366;2023-11-19T04:05:22;7.57;;;6.63;;
43793;SDS011;29414;44.798;20.366;2023-11-19T04:09:22;10.27;;;7.57;;
43793;SDS011;29414;44.798;20.366;2023-11-19T04:13:22;11.07;;;7.77;;
43793;SDS011;29414;44.798;20.366;2023-11-19T04:17:24;9.73;;;7.33;;
43793;SDS011;29414;44.798;20.366;2023-11-19T04:21:24;11.07;;;6.10;;
43793;SDS011;29414;44.798;20.366;2023-11-19T04:25:25;9.20;;;6.57;;
43793;SDS011;29414;44.798;20.366;2023-11-19T04:29:26;15.53;;;8.17;;
43793;SDS011;29414;44.798;20.366;2023-11-19T04:33:26;9.10;;;7.33;;
43793;SDS011;29414;44.798;20.366;2023-11-19T04:37:26;9.53;;;7.17;;
43793;SDS011;29414;44.798;20.366;2023-11-19T04:41:27;8.35;;;7.00;;
43793;SDS011;29414;44.798;20.366;2023-11-19T04:45:27;11.43;;;7.00;;
43793;SDS011;29414;44.798;20.366;2023-11-19T04:49:28;8.17;;;6.80;;
43793;SDS011;29414;44.798;20.366;2023-11-19T04:53:28;9.77;;;8.10;;
43793;SDS011;29414;44.798;20.366;2023-11-19T04:57:28;7.67;;;6.83;;
43793;SDS011;29414;44.798;20.366;2023-11-19T05:01:28;9.00;;;6.93;;
43793;SDS011;29414;44.798;20.366;2023-11-19T05:05:29;13.47;;;10.07;;
43793;SDS011;29414;44.798;20.366;2023-11-19T05:09:29;10.45;;;9.15;;
43793;SDS011;29414;44.798;20.366;2023-11-19T05:13:30;10.47;;;9.37;;
43793;SDS011;29414;44.798;20.366;2023-11-19T05:17:30;10.33;;;8.40;;
43793;SDS011;29414;44.798;20.366;2023-11-19T05:21:31;9.13;;;7.60;;
43793;SDS011;29414;44.798;20.366;2023-11-19T05:25:31;8.37;;;7.33;;
43793;SDS011;29414;44.798;20.366;2023-11-19T05:29:31;14.67;;;11.03;;
43793;SDS011;29414;44.798;20.366;2023-11-19T05:33:32;12.80;;;9.10;;
43793;SDS011;29414;44.798;20.366;2023-11-19T05:37:32;15.60;;;12.67;;
43793;SDS011;29414;44.798;20.366;2023-11-19T05:41:34;21.40;;;15.33;;
43793;SDS011;29414;44.798;20.366;2023-11-19T05:45:35;13.50;;;10.13;;
43793;SDS011;29414;44.798;20.366;2023-11-19T05:49:36;23.73;;;17.37;;
43793;SDS011;29414;44.798;20.366;2023-11-19T05:53:36;19.70;;;15.40;;
43793;SDS011;29414;44.798;20.366;2023-11-19T05:57:37;16.77;;;11.93;;
43793;SDS011;29414;44.798;20.366;2023-11-19T06:01:37;10.47;;;8.43;;
43793;SDS011;29414;44.798;20.366;2023-11-19T06:05:38;24.87;;;22.23;;
43793;SDS011;29414;44.798;20.366;2023-11-19T06:09:38;16.53;;;12.43;;
43793;SDS011;29414;44.798;20.366;2023-11-19T06:13:40;18.73;;;12.33;;
43793;SDS011;29414;44.798;20.366;2023-11-19T06:17:40;17.57;;;13.07;;
43793;SDS011;29414;44.798;20.366;2023-11-19T06:21:40;15.40;;;11.63;;
43793;SDS011;29414;44.798;20.366;2023-11-19T06:25:41;9.70;;;7.93;;
43793;SDS011;29414;44.798;20.366;2023-11-19T06:29:42;9.40;;;7.30;;
43793;SDS011;29414;44.798;20.366;2023-11-19T06:33:42;10.50;;;8.83;;
43793;SDS011;29414;44.798;20.366;2023-11-19T06:37:42;11.37;;;9.43;;
43793;SDS011;29414;44.798;20.366;2023-11-19T06:41:46;9.97;;;7.13;;
43793;SDS011;29414;44.798;20.366;2023-11-19T06:45:47;8.33;;;7.33;;
43793;SDS011;29414;44.798;20.366;2023-11-19T06:49:47;10.07;;;7.33;;
43793;SDS011;29414;44.798;20.366;2023-11-19T06:53:48;8.77;;;7.50;;
43793;SDS011;29414;44.798;20.366;2023-11-19T06:57:48;11.07;;;7.63;;
43793;SDS011;29414;44.798;20.366;2023-11-19T07:01:48;9.88;;;7.75;;
43793;SDS011;29414;44.798;20.366;2023-11-19T07:05:49;9.43;;;7.13;;
43793;SDS011;29414;44.798;20.366;2023-11-19T07:09:49;8.20;;;6.87;;
43793;SDS011;29414;44.798;20.366;2023-11-19T07:13:50;8.40;;;6.47;;
43793;SDS011;29414;44.798;20.366;2023-11-19T07:17:50;8.27;;;6.57;;
43793;SDS011;29414;44.798;20.366;2023-11-19T07:21:50;7.87;;;6.07;;
43793;SDS011;29414;44.798;20.366;2023-11-19T07:25:51;8.43;;;6.10;;
43793;SDS011;29414;44.798;20.366;2023-11-19T07:29:53;7.80;;;6.67;;
43793;SDS011;29414;44.798;20.366;2023-11-19T07:33:53;8.27;;;7.00;;
43793;SDS011;29414;44.798;20.366;2023-11-19T07:37:54;11.10;;;7.38;;
43793;SDS011;29414;44.798;20.366;2023-11-19T07:41:54;6.63;;;6.00;;
43793;SDS011;29414;44.798;20.366;2023-11-19T07:45:55;9.30;;;6.37;;
43793;SDS011;29414;44.798;20.366;2023-11-19T07:49:55;9.10;;;6.40;;
43793;SDS011;29414;44.798;20.366;2023-11-19T07:53:55;7.33;;;6.27;;
43793;SDS011;29414;44.798;20.366;2023-11-19T07:57:56;8.70;;;6.53;;
43793;SDS011;29414;44.798;20.366;2023-11-19T08:01:56;9.60;;;6.60;;
43793;SDS011;29414;44.798;20.366;2023-11-19T08:05:56;7.17;;;6.23;;
43793;SDS011;29414;44.798;20.366;2023-11-19T08:09:59;9.37;;;6.53;;
43793;SDS011;29414;44.798;20.366;2023-11-19T08:14:00;7.33;;;6.23;;
43793;SDS011;29414;44.798;20.366;2023-11-19T08:18:00;10.57;;;7.40;;
43793;SDS011;29414;44.798;20.366;2023-11-19T08:22:00;11.13;;;6.80;;
43793;SDS011;29414;44.798;20.366;2023-11-19T08:26:01;8.83;;;7.20;;
43793;SDS011;29414;44.798;20.366;2023-11-19T08:30:01;8.43;;;6.40;;
43793;SDS011;29414;44.798;20.366;2023-11-19T08:34:01;8.97;;;6.93;;
43793;SDS011;29414;44.798;20.366;2023-11-19T08:38:01;11.97;;;7.80;;
43793;SDS011;29414;44.798;20.366;2023-11-19T08:42:02;8.27;;;6.20;;
43793;SDS011;29414;44.798;20.366;2023-11-19T08:46:02;9.77;;;7.17;;
43793;SDS011;29414;44.798;20.366;2023-11-19T08:50:03;7.47;;;6.13;;
43793;SDS011;29414;44.798;20.366;2023-11-19T08:54:04;9.33;;;6.63;;
43793;SDS011;29414;44.798;20.366;2023-11-19T08:58:04;8.10;;;7.23;;
43793;SDS011;29414;44.798;20.366;2023-11-19T09:02:08;6.78;;;6.07;;
43793;SDS011;29414;44.798;20.366;2023-11-19T09:06:09;7.37;;;6.47;;
43793;SDS011;29414;44.798;20.366;2023-11-19T09:10:09;8.10;;;6.53;;
43793;SDS011;29414;44.798;20.366;2023-11-19T09:14:11;6.60;;;6.00;;
43793;SDS011;29414;44.798;20.366;2023-11-19T09:18:11;7.00;;;6.30;;
43793;SDS011;29414;44.798;20.366;2023-11-19T09:22:12;7.23;;;6.00;;
43793;SDS011;29414;44.798;20.366;2023-11-19T09:26:13;6.27;;;5.63;;
43793;SDS011;29414;44.798;20.366;2023-11-19T09:30:13;6.60;;;5.90;;
43793;SDS011;29414;44.798;20.366;2023-11-19T09:34:13;8.43;;;5.90;;
43793;SDS011;29414;44.798;20.366;2023-11-19T09:38:14;5.53;;;5.03;;
43793;SDS011;29414;44.798;20.366;2023-11-19T09:42:14;8.83;;;5.63;;
43793;SDS011;29414;44.798;20.366;2023-11-19T09:46:14;5.60;;;4.90;;
43793;SDS011;29414;44.798;20.366;2023-11-19T09:50:18;5.67;;;4.97;;
43793;SDS011;29414;44.798;20.366;2023-11-19T09:54:19;5.60;;;5.00;;
43793;SDS011;29414;44.798;20.366;2023-11-19T09:58:19;7.45;;;6.65;;
43793;SDS011;29414;44.798;20.366;2023-11-19T10:02:19;6.30;;;5.33;;
43793;SDS011;29414;44.798;20.366;2023-11-19T10:06:20;5.97;;;5.43;;
43793;SDS011;29414;44.798;20.366;2023-11-19T10:10:20;5.67;;;5.17;;
43793;SDS011;29414;44.798;20.366;2023-11-19T10:14:22;5.70;;;5.20;;
43793;SDS011;29414;44.798;20.366;2023-11-19T10:18:26;5.60;;;5.10;;
43793;SDS011;29414;44.798;20.366;2023-11-19T10:22:29;5.67;;;5.07;;
43793;SDS011;29414;44.798;20.366;2023-11-19T10:26:30;5.67;;;5.17;;
43793;SDS011;29414;44.798;20.366;2023-11-19T10:30:30;4.90;;;4.50;;
43793;SDS011;29414;44.798;20.366;2023-11-19T10:34:30;5.67;;;4.50;;
43793;SDS011;29414;44.798;20.366;2023-11-19T10:38:31;4.27;;;3.87;;
43793;SDS011;29414;44.798;20.366;2023-11-19T10:42:31;5.13;;;4.43;;
43793;SDS011;29414;44.798;20.366;2023-11-19T10:46:41;4.53;;;4.13;;
43793;SDS011;29414;44.798;20.366;2023-11-19T10:50:42;4.20;;;3.80;;
43793;SDS011;29414;44.798;20.366;2023-11-19T10:54:43;6.73;;;4.80;;
43793;SDS011;29414;44.798;20.366;2023-11-19T10:58:44;6.20;;;5.30;;
43793;SDS011;29414;44.798;20.366;2023-11-19T11:02:45;5.60;;;5.10;;
43793;SDS011;29414;44.798;20.366;2023-11-19T11:06:50;5.30;;;4.80;;
43793;SDS011;29414;44.798;20.366;2023-11-19T11:10:54;6.70;;;4.80;;
43793;SDS011;29414;44.798;20.366;2023-11-19T11:14:55;5.67;;;4.23;;
43793;SDS011;29414;44.798;20.366;2023-11-19T11:18:56;7.57;;;5.67;;
43793;SDS011;29414;44.798;20.366;2023-11-19T11:23:12;5.00;;;4.27;;
43793;SDS011;29414;44.798;20.366;2023-11-19T11:27:26;4.43;;;4.03;;
43793;SDS011;29414;44.798;20.366;2023-11-19T11:31:31;4.97;;;3.70;;
43793;SDS011;29414;44.798;20.366;2023-11-19T11:40:06;5.67;;;3.87;;
43793;SDS011;29414;44.798;20.366;2023-11-19T11:44:10;6.30;;;3.23;;
43793;SDS011;29414;44.798;20.366;2023-11-19T11:48:15;4.80;;;3.30;;
43793;SDS011;29414;44.798;20.366;2023-11-19T11:52:15;7.60;;;2.73;;
43793;SDS011;29414;44.798;20.366;2023-11-19T11:56:16;4.43;;;3.07;;
43793;SDS011;29414;44.798;20.366;2023-11-19T12:04:37;4.03;;;3.03;;
43793;SDS011;29414;44.798;20.366;2023-11-19T12:08:39;3.33;;;2.33;;
43793;SDS011;29414;44.798;20.366;2023-11-19T12:12:40;4.23;;;2.70;;
43793;SDS011;29414;44.798;20.366;2023-11-19T12:16:41;2.83;;;2.60;;
43793;SDS011;29414;44.798;20.366;2023-11-19T12:20:42;4.73;;;3.17;;
43793;SDS011;29414;44.798;20.366;2023-11-19T12:24:42;6.23;;;3.53;;
43793;SDS011;29414;44.798;20.366;2023-11-19T12:28:42;3.43;;;2.80;;
43793;SDS011;29414;44.798;20.366;2023-11-19T12:32:57;6.50;;;3.83;;
43793;SDS011;29414;44.798;20.366;2023-11-19T12:36:57;6.90;;;4.53;;
43793;SDS011;29414;44.798;20.366;2023-11-19T12:45:04;6.35;;;3.28;;
43793;SDS011;29414;44.798;20.366;2023-11-19T12:49:04;6.80;;;4.07;;
43793;SDS011;29414;44.798;20.366;2023-11-19T12:53:06;6.20;;;2.80;;
43793;SDS011;29414;44.798;20.366;2023-11-19T12:57:06;4.67;;;2.90;;
43793;SDS011;29414;44.798;20.366;2023-11-19T13:01:06;4.53;;;2.60;;
43793;SDS011;29414;44.798;20.366;2023-11-19T13:09:28;4.13;;;3.17;;
43793;SDS011;29414;44.798;20.366;2023-11-19T13:13:29;5.27;;;2.87;;
43793;SDS011;29414;44.798;20.366;2023-11-19T13:17:29;4.43;;;3.30;;
43793;SDS011;29414;44.798;20.366;2023-11-19T13:21:30;4.10;;;3.37;;
43793;SDS011;29414;44.798;20.366;2023-11-19T13:25:30;3.07;;;2.63;;
43793;SDS011;29414;44.798;20.366;2023-11-19T13:29:32;7.20;;;3.13;;
43793;SDS011;29414;44.798;20.366;2023-11-19T13:33:32;3.37;;;2.97;;
43793;SDS011;29414;44.798;20.366;2023-11-19T13:37:32;4.00;;;3.30;;
43793;SDS011;29414;44.798;20.366;2023-11-19T13:41:32;5.27;;;3.40;;
43793;SDS011;29414;44.798;20.366;2023-11-19T13:45:33;6.13;;;3.63;;
43793;SDS011;29414;44.798;20.366;2023-11-19T13:49:33;5.83;;;3.33;;
43793;SDS011;29414;44.798;20.366;2023-11-19T13:53:33;3.93;;;2.83;;
43793;SDS011;29414;44.798;20.366;2023-11-19T13:57:37;3.60;;;2.67;;
43793;SDS011;29414;44.798;20.366;2023-11-19T14:01:38;3.80;;;2.63;;
43793;SDS011;29414;44.798;20.366;2023-11-19T14:05:38;3.20;;;2.53;;
43793;SDS011;29414;44.798;20.366;2023-11-19T14:09:39;7.30;;;4.80;;
43793;SDS011;29414;44.798;20.366;2023-11-19T14:13:39;3.78;;;2.30;;
43793;SDS011;29414;44.798;20.366;2023-11-19T14:17:40;5.37;;;2.80;;
43793;SDS011;29414;44.798;20.366;2023-11-19T14:21:40;8.03;;;5.90;;
43793;SDS011;29414;44.798;20.366;2023-11-19T14:25:41;4.23;;;2.67;;
43793;SDS011;29414;44.798;20.366;2023-11-19T14:29:41;4.03;;;3.10;;
43793;SDS011;29414;44.798;20.366;2023-11-19T14:33:41;5.00;;;2.60;;
43793;SDS011;29414;44.798;20.366;2023-11-19T14:37:42;6.60;;;4.20;;
43793;SDS011;29414;44.798;20.366;2023-11-19T14:41:42;4.60;;;3.33;;
43793;SDS011;29414;44.798;20.366;2023-11-19T14:45:42;6.37;;;4.57;;
43793;SDS011;29414;44.798;20.366;2023-11-19T14:49:43;7.83;;;5.03;;
43793;SDS011;29414;44.798;20.366;2023-11-19T14:53:43;5.78;;;4.48;;
43793;SDS011;29414;44.798;20.366;2023-11-19T14:57:44;7.30;;;4.53;;
43793;SDS011;29414;44.798;20.366;2023-11-19T15:01:44;8.37;;;4.90;;
43793;SDS011;29414;44.798;20.366;2023-11-19T15:05:45;10.33;;;5.50;;
43793;SDS011;29414;44.798;20.366;2023-11-19T15:09:46;7.30;;;5.27;;
43793;SDS011;29414;44.798;20.366;2023-11-19T15:13:46;7.97;;;5.37;;
43793;SDS011;29414;44.798;20.366;2023-11-19T15:17:46;11.03;;;5.70;;
43793;SDS011;29414;44.798;20.366;2023-11-19T15:21:47;5.57;;;4.07;;
43793;SDS011;29414;44.798;20.366;2023-11-19T15:25:47;9.23;;;6.07;;
43793;SDS011;29414;44.798;20.366;2023-11-19T15:29:49;8.93;;;6.67;;
43793;SDS011;29414;44.798;20.366;2023-11-19T15:33:49;13.80;;;8.93;;
43793;SDS011;29414;44.798;20.366;2023-11-19T15:37:50;9.90;;;8.30;;
43793;SDS011;29414;44.798;20.366;2023-11-19T15:41:51;12.57;;;8.27;;
43793;SDS011;29414;44.798;20.366;2023-11-19T15:45:51;11.33;;;8.73;;
43793;SDS011;29414;44.798;20.366;2023-11-19T15:49:51;11.03;;;7.20;;
43793;SDS011;29414;44.798;20.366;2023-11-19T15:53:51;9.70;;;7.40;;
43793;SDS011;29414;44.798;20.366;2023-11-19T15:57:52;15.77;;;10.07;;
43793;SDS011;29414;44.798;20.366;2023-11-19T16:01:52;20.73;;;14.17;;
43793;SDS011;29414;44.798;20.366;2023-11-19T16:05:52;15.77;;;13.57;;
43793;SDS011;29414;44.798;20.366;2023-11-19T16:09:52;17.05;;;13.43;;
43793;SDS011;29414;44.798;20.366;2023-11-19T16:13:53;19.93;;;14.03;;
43793;SDS011;29414;44.798;20.366;2023-11-19T16:17:53;20.53;;;15.73;;
43793;SDS011;29414;44.798;20.366;2023-11-19T16:21:54;20.43;;;14.80;;
43793;SDS011;29414;44.798;20.366;2023-11-19T16:25:54;21.13;;;15.73;;
43793;SDS011;29414;44.798;20.366;2023-11-19T16:29:55;20.53;;;15.83;;
43793;SDS011;29414;44.798;20.366;2023-11-19T16:33:55;20.60;;;15.03;;
43793;SDS011;29414;44.798;20.366;2023-11-19T16:37:56;22.03;;;14.77;;
43793;SDS011;29414;44.798;20.366;2023-11-19T16:41:56;21.40;;;14.93;;
43793;SDS011;29414;44.798;20.366;2023-11-19T16:45:57;20.97;;;14.37;;
43793;SDS011;29414;44.798;20.366;2023-11-19T16:49:58;23.90;;;15.53;;
43793;SDS011;29414;44.798;20.366;2023-11-19T16:53:58;19.60;;;12.93;;
43793;SDS011;29414;44.798;20.366;2023-11-19T16:57:58;22.67;;;15.00;;
43793;SDS011;29414;44.798;20.366;2023-11-19T17:01:59;18.50;;;13.70;;
43793;SDS011;29414;44.798;20.366;2023-11-19T17:06:01;23.30;;;14.60;;
43793;SDS011;29414;44.798;20.366;2023-11-19T17:10:01;17.50;;;13.43;;
43793;SDS011;29414;44.798;20.366;2023-11-19T17:14:02;19.90;;;13.03;;
43793;SDS011;29414;44.798;20.366;2023-11-19T17:18:02;17.47;;;12.23;;
43793;SDS011;29414;44.798;20.366;2023-11-19T17:22:03;30.13;;;15.80;;
43793;SDS011;29414;44.798;20.366;2023-11-19T17:26:04;22.10;;;15.37;;
43793;SDS011;29414;44.798;20.366;2023-11-19T17:30:05;20.10;;;15.27;;
43793;SDS011;29414;44.798;20.366;2023-11-19T17:34:06;20.97;;;15.53;;
43793;SDS011;29414;44.798;20.366;2023-11-19T17:38:06;18.80;;;14.57;;
43793;SDS011;29414;44.798;20.366;2023-11-19T17:42:07;19.03;;;13.70;;
43793;SDS011;29414;44.798;20.366;2023-11-19T17:46:08;22.30;;;15.67;;
43793;SDS011;29414;44.798;20.366;2023-11-19T17:50:08;19.43;;;13.33;;
43793;SDS011;29414;44.798;20.366;2023-11-19T17:54:09;13.87;;;11.07;;
43793;SDS011;29414;44.798;20.366;2023-11-19T17:58:10;15.73;;;11.80;;
43793;SDS011;29414;44.798;20.366;2023-11-19T18:02:10;16.73;;;11.10;;
43793;SDS011;29414;44.798;20.366;2023-11-19T18:06:15;18.17;;;12.47;;
43793;SDS011;29414;44.798;20.366;2023-11-19T18:10:17;26.23;;;18.00;;
43793;SDS011;29414;44.798;20.366;2023-11-19T18:14:17;24.87;;;18.17;;
43793;SDS011;29414;44.798;20.366;2023-11-19T18:18:17;18.63;;;14.30;;
43793;SDS011;29414;44.798;20.366;2023-11-19T18:22:18;15.73;;;11.87;;
43793;SDS011;29414;44.798;20.366;2023-11-19T18:26:18;17.23;;;11.60;;
43793;SDS011;29414;44.798;20.366;2023-11-19T18:30:18;16.40;;;11.60;;
43793;SDS011;29414;44.798;20.366;2023-11-19T18:34:19;17.93;;;12.63;;
43793;SDS011;29414;44.798;20.366;2023-11-19T18:38:19;17.40;;;14.23;;
43793;SDS011;29414;44.798;20.366;2023-11-19T18:42:20;21.33;;;13.77;;
43793;SDS011;29414;44.798;20.366;2023-11-19T18:46:20;16.75;;;11.88;;
43793;SDS011;29414;44.798;20.366;2023-11-19T18:50:20;17.53;;;12.67;;
43793;SDS011;29414;44.798;20.366;2023-11-19T18:54:21;16.73;;;11.73;;
43793;SDS011;29414;44.798;20.366;2023-11-19T18:58:22;14.57;;;11.73;;
43793;SDS011;29414;44.798;20.366;2023-11-19T19:02:23;17.47;;;12.73;;
43793;SDS011;29414;44.798;20.366;2023-11-19T19:06:24;17.57;;;12.50;;
43793;SDS011;29414;44.798;20.366;2023-11-19T19:10:25;14.33;;;11.87;;
43793;SDS011;29414;44.798;20.366;2023-11-19T19:14:25;18.17;;;12.83;;
43793;SDS011;29414;44.798;20.366;2023-11-19T19:18:26;18.97;;;13.97;;
43793;SDS011;29414;44.798;20.366;2023-11-19T19:22:26;20.27;;;15.43;;
43793;SDS011;29414;44.798;20.366;2023-11-19T19:26:26;33.83;;;25.10;;
43793;SDS011;29414;44.798;20.366;2023-11-19T19:30:27;38.10;;;31.33;;
43793;SDS011;29414;44.798;20.366;2023-11-19T19:34:27;17.93;;;13.80;;
43793;SDS011;29414;44.798;20.366;2023-11-19T19:38:29;16.50;;;14.43;;
43793;SDS011;29414;44.798;20.366;2023-11-19T19:42:30;21.50;;;16.73;;
43793;SDS011;29414;44.798;20.366;2023-11-19T19:46:32;23.83;;;18.67;;
43793;SDS011;29414;44.798;20.366;2023-11-19T19:50:32;25.77;;;20.10;;
43793;SDS011;29414;44.798;20.366;2023-11-19T19:54:32;36.97;;;23.10;;
43793;SDS011;29414;44.798;20.366;2023-11-19T19:58:35;39.53;;;28.47;;
43793;SDS011;29414;44.798;20.366;2023-11-19T20:02:35;37.57;;;27.57;;
43793;SDS011;29414;44.798;20.366;2023-11-19T20:06:38;36.50;;;24.73;;
43793;SDS011;29414;44.798;20.366;2023-11-19T20:10:39;39.10;;;26.50;;
43793;SDS011;29414;44.798;20.366;2023-11-19T20:14:39;40.08;;;26.05;;
43793;SDS011;29414;44.798;20.366;2023-11-19T20:18:39;34.27;;;24.80;;
43793;SDS011;29414;44.798;20.366;2023-11-19T20:22:40;33.93;;;24.43;;
43793;SDS011;29414;44.798;20.366;2023-11-19T20:26:41;39.77;;;28.00;;
43793;SDS011;29414;44.798;20.366;2023-11-19T20:30:41;44.67;;;30.20;;
43793;SDS011;29414;44.798;20.366;2023-11-19T20:34:41;50.63;;;33.03;;
43793;SDS011;29414;44.798;20.366;2023-11-19T20:38:42;55.53;;;38.93;;
43793;SDS011;29414;44.798;20.366;2023-11-19T20:42:42;57.43;;;39.93;;
43793;SDS011;29414;44.798;20.366;2023-11-19T20:46:42;54.78;;;37.97;;
43793;SDS011;29414;44.798;20.366;2023-11-19T20:50:43;51.90;;;36.60;;
43793;SDS011;29414;44.798;20.366;2023-11-19T20:54:43;54.10;;;36.58;;
43793;SDS011;29414;44.798;20.366;2023-11-19T20:58:43;51.73;;;33.83;;
43793;SDS011;29414;44.798;20.366;2023-11-19T21:02:44;52.80;;;32.42;;
43793;SDS011;29414;44.798;20.366;2023-11-19T21:06:44;56.53;;;37.80;;
43793;SDS011;29414;44.798;20.366;2023-11-19T21:10:44;75.57;;;47.27;;
43793;SDS011;29414;44.798;20.366;2023-11-19T21:14:46;69.93;;;45.17;;
43793;SDS011;29414;44.798;20.366;2023-11-19T21:18:46;57.20;;;38.72;;
43793;SDS011;29414;44.798;20.366;2023-11-19T21:22:47;61.63;;;40.67;;
43793;SDS011;29414;44.798;20.366;2023-11-19T21:26:47;61.17;;;42.53;;
43793;SDS011;29414;44.798;20.366;2023-11-19T21:30:47;56.20;;;40.10;;
43793;SDS011;29414;44.798;20.366;2023-11-19T21:34:48;55.53;;;38.70;;
43793;SDS011;29414;44.798;20.366;2023-11-19T21:38:48;52.20;;;34.37;;
43793;SDS011;29414;44.798;20.366;2023-11-19T21:42:48;51.73;;;36.60;;
43793;SDS011;29414;44.798;20.366;2023-11-19T21:46:51;57.17;;;38.03;;
43793;SDS011;29414;44.798;20.366;2023-11-19T21:50:51;74.83;;;47.97;;
43793;SDS011;29414;44.798;20.366;2023-11-19T21:54:52;64.10;;;42.70;;
43793;SDS011;29414;44.798;20.366;2023-11-19T21:58:52;58.50;;;37.93;;
43793;SDS011;29414;44.798;20.366;2023-11-19T22:02:52;56.85;;;36.50;;
43793;SDS011;29414;44.798;20.366;2023-11-19T22:06:53;51.33;;;34.53;;
43793;SDS011;29414;44.798;20.366;2023-11-19T22:10:53;46.47;;;33.43;;
43793;SDS011;29414;44.798;20.366;2023-11-19T22:14:54;49.53;;;32.73;;
43793;SDS011;29414;44.798;20.366;2023-11-19T22:18:55;55.40;;;34.60;;
43793;SDS011;29414;44.798;20.366;2023-11-19T22:22:55;48.17;;;32.47;;
43793;SDS011;29414;44.798;20.366;2023-11-19T22:26:56;50.17;;;33.73;;
43793;SDS011;29414;44.798;20.366;2023-11-19T22:30:56;48.90;;;34.67;;
43793;SDS011;29414;44.798;20.366;2023-11-19T22:34:56;50.00;;;33.63;;
43793;SDS011;29414;44.798;20.366;2023-11-19T22:38:56;52.73;;;35.10;;
43793;SDS011;29414;44.798;20.366;2023-11-19T22:42:57;53.00;;;34.83;;
43793;SDS011;29414;44.798;20.366;2023-11-19T22:46:57;54.33;;;33.90;;
43793;SDS011;29414;44.798;20.366;2023-11-19T22:50:59;46.33;;;32.53;;
43793;SDS011;29414;44.798;20.366;2023-11-19T22:55:00;48.90;;;33.63;;
43793;SDS011;29414;44.798;20.366;2023-11-19T22:59:00;47.07;;;32.10;;
43793;SDS011;29414;44.798;20.366;2023-11-19T23:03:00;50.47;;;34.07;;
43793;SDS011;29414;44.798;20.366;2023-11-19T23:07:03;49.97;;;33.07;;
43793;SDS011;29414;44.798;20.366;2023-11-19T23:11:04;47.87;;;31.43;;
43793;SDS011;29414;44.798;20.366;2023-11-19T23:15:04;48.33;;;31.57;;
43793;SDS011;29414;44.798;20.366;2023-11-19T23:19:07;46.97;;;31.13;;
43793;SDS011;29414;44.798;20.366;2023-11-19T23:23:09;47.80;;;32.03;;
43793;SDS011;29414;44.798;20.366;2023-11-19T23:27:09;43.03;;;29.47;;
43793;SDS011;29414;44.798;20.366;2023-11-19T23:31:15;45.67;;;28.30;;
43793;SDS011;29414;44.798;20.366;2023-11-19T23:35:15;43.57;;;28.30;;
43793;SDS011;29414;44.798;20.366;2023-11-19T23:39:16;44.30;;;29.17;;
43793;SDS011;29414;44.798;20.366;2023-11-19T23:43:16;50.17;;;29.00;;
43793;SDS011;29414;44.798;20.366;2023-11-19T23:47:16;39.40;;;25.83;;